MDT,Max TemperatureF,Mean TemperatureF,Min TemperatureF,Max Dew PointF,MeanDew PointF,Min DewpointF,Max Humidity, Mean Humidity, Min Humidity, Max Sea Level PressureIn, Mean Sea Level PressureIn, Min Sea Level PressureIn, Max VisibilityMiles, Mean VisibilityMiles, Min VisibilityMiles, Max Wind SpeedMPH, Mean Wind SpeedMPH, Max Gust SpeedMPH,PrecipitationIn, CloudCover, Events, WindDirDegrees
2014-6-1,86,70,54,32,18,5,36,21,5,29.95,29.73,29.60,10,10,10,24,9,31,0.00,0,,303
2014-6-2,88,69,49,27,22,15,39,24,8,30.06,29.81,29.67,10,10,10,21,7,25,0.00,0,,110
2014-6-3,89,74,58,28,16,3,19,12,4,29.94,29.69,29.61,10,10,10,25,12,31,0.00,0,,54
2014-6-4,89,69,49,22,15,4,30,17,4,29.94,29.75,29.65,10,10,10,23,9,28,0.00,0,,128
2014-6-5,89,74,58,34,23,7,30,18,5,30.01,29.76,29.64,10,10,2,23,7,26,0.00,0,,207
2014-6-6,89,71,52,31,23,14,41,24,7,29.97,29.74,29.64,10,10,10,20,8,29,0.00,0,,190
2014-6-7,90,71,52,30,23,14,35,21,6,29.94,29.72,29.62,10,10,10,18,8,25,0.00,0,,157
2014-6-8,71,59,47,46,37,26,74,47,20,30.10,29.88,29.65,10,9,2,47,9,57,0.12,2,Rain-Thunderstorm,43
2014-6-9,77,59,41,42,36,25,89,53,16,30.24,30.02,29.87,10,10,10,15,5,17,0.00,0,,110
2014-6-10,86,68,50,36,31,27,54,33,12,30.03,29.82,29.67,10,10,10,29,9,35,0.00,0,,81
2014-6-11,86,74,62,46,37,32,42,29,15,29.93,29.75,29.65,10,10,8,31,10,37,T,3,Rain-Thunderstorm,108
2014-6-12,88,71,53,43,39,34,59,38,16,29.98,29.83,29.73,10,10,10,22,9,30,0.01,1,Rain,111
2014-6-13,91,75,58,39,27,18,42,25,8,29.92,29.64,29.46,10,10,10,28,14,36,0.00,0,,162
2014-6-14,77,63,49,31,19,10,31,20,8,29.85,29.65,29.52,10,10,10,23,10,29,0.00,0,,284
2014-6-15,82,65,48,28,20,11,38,23,7,29.82,29.69,29.52,10,10,10,17,7,20,0.00,0,,125
2014-6-16,86,75,63,21,13,10,13,10,6,29.67,29.56,29.50,10,10,10,32,13,40,0.00,0,,177
2014-6-17,89,71,52,30,20,9,30,18,6,29.78,29.57,29.44,10,10,9,39,18,55,0.00,0,,191
2014-6-18,77,63,48,30,25,21,38,26,14,29.89,29.82,29.76,10,10,10,24,9,30,0.00,1,,314
2014-6-19,80,62,43,28,22,15,45,27,9,30.13,30.01,29.96,10,10,10,18,6,23,0.00,0,,340
2014-6-20,89,70,50,28,21,15,35,21,7,30.20,29.93,29.78,10,10,10,20,7,25,0.00,0,,105
2014-6-21,91,77,62,33,24,13,27,17,6,29.82,29.74,29.67,10,10,10,20,8,24,0.00,0,,146
2014-6-22,90,76,62,33,26,21,26,17,8,29.94,29.74,29.66,10,10,10,18,7,24,0.00,0,,147
2014-6-23,90,74,58,36,31,24,37,23,9,30.02,29.81,29.72,10,10,10,29,12,38,0.00,0,,107
2014-6-24,93,77,60,38,32,20,39,23,7,30.08,29.79,29.68,10,10,10,20,8,24,0.00,0,,131
2014-6-25,94,77,59,38,27,14,39,23,7,29.94,29.73,29.62,10,10,10,15,7,19,0.00,0,,109
2014-6-26,93,78,62,31,24,20,23,15,7,29.77,29.59,29.46,10,10,10,31,15,39,0.00,0,,174
2014-6-27,84,73,62,39,35,30,40,28,15,29.71,29.63,29.59,10,10,10,23,8,27,0.00,2,,295
2014-6-28,88,70,52,42,31,22,54,32,9,29.84,29.79,29.72,10,10,10,18,6,22,0.00,1,,300
2014-6-29,96,77,57,32,28,22,33,20,7,29.85,29.77,29.68,10,10,10,26,9,31,0.00,0,,142
2014-6-30,96,77,58,35,27,16,32,20,7,29.98,29.74,29.66,10,10,10,20,8,26,0.00,0,,321